KMPV

Edward F Knapp State Airport

Barre/Montpelier, Vermont, USA
METAR KMPV 150251Z AUTO 18004KT 10SM CLR 19/19 A2988 RMK AO2 SLP114 T01940194 50004
Observed Flight Rules
Aug-15 @ 02:51 UTC (46 minutes ago) Visual Flight Rules
Wind Visibility Clouds
180° at 4 knots 10 miles
  • Clear skies
Temperatures Readings
Current 19°C / 66°F
Dewpoint 19°C / 66°F
Humidity 100%
Altimeter 29.88" Hg
Pressure 1011.4 hPa
Elevation 343
METAR KMPV 150251Z AUTO 18004KT 10SM CLR 19/19 A2988 RMK AO2 SLP114 T01940194 50004
Observed Flight Rules
Aug-15 @ 02:51 UTC
(46 minutes ago)
VFR
Wind Visibility
180° at 4 knots 10 miles
Clouds
  • Clear skies
Temperature Dewpoint
19°C / 66°F 19°C / 66°F
Humidity Altimeter Pressure
100% 29.88" Hg 1011.4 hPa